Airfield :







YOU CAN JOIN US ON...

 
LOGIN :

Register | Disclaimer

   EN    FR    IT 

 









Legend :    VFR   Marginal VFR   IFR   Intensive IFR   Very Intensive IFR
Visi :
Ceiling :
>= 8 km
>= 3000ft
5 to 8 km
1000 to 3000 ft
1500m to 5 km
500 to 1000 ft
800 to 1500m
200 to 500 ft
< 800m
< 200 ft
Symbols :   Thunderstorms  Fog  Heavy snow  Heavy precipitations  Wind > 20 kt






- Airport Elevation : 215 ft
- IATA code : MSS


KMSS - Massena International Richards Field

CURRENT METAR :
  • 250653Z AUTO 18004KT 10SM CLR 18/07 A3005 RMK AO2 SLP175 T01780072

EXPIRED METARs :
  • 250553Z AUTO 18005KT 10SM CLR 18/07 A3005 RMK AO2 SLP174 T01830072 10228 20150 58001
  • 250453Z AUTO 16007KT 10SM CLR 20/07 A3005 RMK AO2 SLP174 T02000072 402780089

TAF KMSS
Valid from the 25 at 06:00 until the 26 at 06:00 UTC


250527Z 2506/2606 19006KT P6SM FEW200 WS020/21035KT
FM251100 19006KT P6SM VCSH BKN080
FM251400 19007KT P6SM VCSH OVC035
FM251700 20008KT P6SM BKN030
FM260000 VRB04KT P6SM SCT060
KZBW FIR / North America



MET'MAP, your aeronautical weather chart ! - Copyright ORBIFLY December 2007 - Disclaimer

ORBIFLY MET'MAP TEAM :

Programming & Development : Alexandra Zaïnal
Concept & original design : Baudouin d'Aumeries
Assistance for programming : Marc-Olivier Méhu
Technical & hardware support : Manuel Goepfert

Contact : metmap@orbifly.com




SOURCES & CREDITS :

   NOAA